sensor_id;sensor_type;location;lat;lon;timestamp;P1;durP1;ratioP1;P2;durP2;ratioP2
61531;SDS011;47397;48.194;11.632;2023-08-24T00:00:37;13.95;;;10.15;;
61531;SDS011;47397;48.194;11.632;2023-08-24T00:01:37;11.40;;;10.07;;
61531;SDS011;47397;48.194;11.632;2023-08-24T00:02:37;11.70;;;10.50;;
61531;SDS011;47397;48.194;11.632;2023-08-24T00:03:37;11.13;;;9.77;;
61531;SDS011;47397;48.194;11.632;2023-08-24T00:04:38;13.63;;;10.43;;
61531;SDS011;47397;48.194;11.632;2023-08-24T00:05:38;11.05;;;9.90;;
61531;SDS011;47397;48.194;11.632;2023-08-24T00:06:38;11.60;;;10.00;;
61531;SDS011;47397;48.194;11.632;2023-08-24T00:07:38;13.50;;;10.48;;
61531;SDS011;47397;48.194;11.632;2023-08-24T00:08:40;12.07;;;10.55;;
61531;SDS011;47397;48.194;11.632;2023-08-24T00:09:40;11.20;;;10.20;;
61531;SDS011;47397;48.194;11.632;2023-08-24T00:10:42;12.07;;;10.88;;
61531;SDS011;47397;48.194;11.632;2023-08-24T00:11:43;14.77;;;11.63;;
61531;SDS011;47397;48.194;11.632;2023-08-24T00:12:43;11.95;;;10.75;;
61531;SDS011;47397;48.194;11.632;2023-08-24T00:13:43;13.00;;;11.00;;
61531;SDS011;47397;48.194;11.632;2023-08-24T00:14:43;14.02;;;10.85;;
61531;SDS011;47397;48.194;11.632;2023-08-24T00:15:44;14.70;;;10.98;;
61531;SDS011;47397;48.194;11.632;2023-08-24T00:16:44;12.02;;;10.68;;
61531;SDS011;47397;48.194;11.632;2023-08-24T00:17:45;12.00;;;10.77;;
61531;SDS011;47397;48.194;11.632;2023-08-24T00:18:45;15.63;;;11.30;;
61531;SDS011;47397;48.194;11.632;2023-08-24T00:19:45;15.05;;;11.20;;
61531;SDS011;47397;48.194;11.632;2023-08-24T00:20:45;12.55;;;11.30;;
61531;SDS011;47397;48.194;11.632;2023-08-24T00:21:45;13.00;;;11.70;;
61531;SDS011;47397;48.194;11.632;2023-08-24T00:22:46;13.55;;;11.93;;
61531;SDS011;47397;48.194;11.632;2023-08-24T00:23:47;16.77;;;12.70;;
61531;SDS011;47397;48.194;11.632;2023-08-24T00:24:48;13.40;;;11.70;;
61531;SDS011;47397;48.194;11.632;2023-08-24T00:25:48;14.82;;;11.88;;
61531;SDS011;47397;48.194;11.632;2023-08-24T00:26:48;12.85;;;11.52;;
61531;SDS011;47397;48.194;11.632;2023-08-24T00:27:48;13.13;;;11.75;;
61531;SDS011;47397;48.194;11.632;2023-08-24T00:28:48;13.68;;;11.73;;
61531;SDS011;47397;48.194;11.632;2023-08-24T00:29:49;14.13;;;12.10;;
61531;SDS011;47397;48.194;11.632;2023-08-24T00:30:49;14.52;;;11.50;;
61531;SDS011;47397;48.194;11.632;2023-08-24T00:31:49;14.25;;;11.00;;
61531;SDS011;47397;48.194;11.632;2023-08-24T00:32:49;11.98;;;10.77;;
61531;SDS011;47397;48.194;11.632;2023-08-24T00:33:50;12.52;;;11.30;;
61531;SDS011;47397;48.194;11.632;2023-08-24T00:34:50;13.30;;;10.90;;
61531;SDS011;47397;48.194;11.632;2023-08-24T00:35:50;13.38;;;11.05;;
61531;SDS011;47397;48.194;11.632;2023-08-24T00:36:50;12.90;;;11.60;;
61531;SDS011;47397;48.194;11.632;2023-08-24T00:37:50;16.25;;;12.40;;
61531;SDS011;47397;48.194;11.632;2023-08-24T00:38:52;15.70;;;11.95;;
61531;SDS011;47397;48.194;11.632;2023-08-24T00:39:52;13.45;;;12.15;;
61531;SDS011;47397;48.194;11.632;2023-08-24T00:40:52;14.52;;;12.13;;
61531;SDS011;47397;48.194;11.632;2023-08-24T00:41:53;15.07;;;12.20;;
61531;SDS011;47397;48.194;11.632;2023-08-24T00:42:53;13.20;;;11.93;;
61531;SDS011;47397;48.194;11.632;2023-08-24T00:43:53;14.43;;;12.93;;
61531;SDS011;47397;48.194;11.632;2023-08-24T00:44:53;14.60;;;11.75;;
61531;SDS011;47397;48.194;11.632;2023-08-24T00:45:54;16.38;;;12.35;;
61531;SDS011;47397;48.194;11.632;2023-08-24T00:46:55;13.27;;;11.88;;
61531;SDS011;47397;48.194;11.632;2023-08-24T00:47:55;15.43;;;12.50;;
61531;SDS011;47397;48.194;11.632;2023-08-24T00:48:55;13.93;;;12.48;;
61531;SDS011;47397;48.194;11.632;2023-08-24T00:49:56;14.07;;;12.63;;
61531;SDS011;47397;48.194;11.632;2023-08-24T00:50:57;14.13;;;12.70;;
61531;SDS011;47397;48.194;11.632;2023-08-24T00:51:58;13.18;;;11.70;;
61531;SDS011;47397;48.194;11.632;2023-08-24T00:53:00;13.70;;;12.30;;
61531;SDS011;47397;48.194;11.632;2023-08-24T00:54:01;14.93;;;12.30;;
61531;SDS011;47397;48.194;11.632;2023-08-24T00:55:02;13.60;;;12.23;;
61531;SDS011;47397;48.194;11.632;2023-08-24T00:56:02;15.13;;;12.07;;
61531;SDS011;47397;48.194;11.632;2023-08-24T00:57:03;13.35;;;12.05;;
61531;SDS011;47397;48.194;11.632;2023-08-24T00:58:03;12.63;;;11.30;;
61531;SDS011;47397;48.194;11.632;2023-08-24T00:59:03;15.43;;;11.80;;
61531;SDS011;47397;48.194;11.632;2023-08-24T01:00:05;14.38;;;11.68;;
61531;SDS011;47397;48.194;11.632;2023-08-24T01:01:05;13.43;;;12.10;;
61531;SDS011;47397;48.194;11.632;2023-08-24T01:02:05;13.35;;;12.02;;
61531;SDS011;47397;48.194;11.632;2023-08-24T01:03:06;13.45;;;12.13;;
61531;SDS011;47397;48.194;11.632;2023-08-24T01:04:06;13.23;;;11.93;;
61531;SDS011;47397;48.194;11.632;2023-08-24T01:05:07;14.80;;;12.13;;
61531;SDS011;47397;48.194;11.632;2023-08-24T01:06:07;12.15;;;10.90;;
61531;SDS011;47397;48.194;11.632;2023-08-24T01:07:07;12.80;;;11.52;;
61531;SDS011;47397;48.194;11.632;2023-08-24T01:08:08;12.95;;;11.55;;
61531;SDS011;47397;48.194;11.632;2023-08-24T01:09:09;13.18;;;11.80;;
61531;SDS011;47397;48.194;11.632;2023-08-24T01:10:10;15.43;;;12.10;;
61531;SDS011;47397;48.194;11.632;2023-08-24T01:11:12;12.80;;;11.43;;
61531;SDS011;47397;48.194;11.632;2023-08-24T01:12:19;13.98;;;11.57;;
61531;SDS011;47397;48.194;11.632;2023-08-24T01:13:21;13.45;;;11.45;;
61531;SDS011;47397;48.194;11.632;2023-08-24T01:14:25;12.60;;;10.88;;
61531;SDS011;47397;48.194;11.632;2023-08-24T01:15:32;16.85;;;10.80;;
61531;SDS011;47397;48.194;11.632;2023-08-24T01:16:38;12.60;;;10.93;;
61531;SDS011;47397;48.194;11.632;2023-08-24T01:17:41;12.30;;;11.05;;
61531;SDS011;47397;48.194;11.632;2023-08-24T01:18:42;11.82;;;10.48;;
61531;SDS011;47397;48.194;11.632;2023-08-24T01:19:43;12.50;;;10.82;;
61531;SDS011;47397;48.194;11.632;2023-08-24T01:20:44;12.55;;;11.05;;
61531;SDS011;47397;48.194;11.632;2023-08-24T01:21:44;12.73;;;11.52;;
61531;SDS011;47397;48.194;11.632;2023-08-24T01:22:47;11.77;;;10.50;;
61531;SDS011;47397;48.194;11.632;2023-08-24T01:24:02;12.50;;;11.18;;
61531;SDS011;47397;48.194;11.632;2023-08-24T01:25:11;11.85;;;10.65;;
61531;SDS011;47397;48.194;11.632;2023-08-24T01:26:14;10.90;;;9.90;;
61531;SDS011;47397;48.194;11.632;2023-08-24T01:27:14;12.52;;;11.23;;
61531;SDS011;47397;48.194;11.632;2023-08-24T01:28:15;12.23;;;10.93;;
61531;SDS011;47397;48.194;11.632;2023-08-24T01:29:16;12.50;;;11.20;;
61531;SDS011;47397;48.194;11.632;2023-08-24T01:30:16;11.88;;;10.73;;
61531;SDS011;47397;48.194;11.632;2023-08-24T01:31:17;11.45;;;10.40;;
61531;SDS011;47397;48.194;11.632;2023-08-24T01:32:17;11.50;;;10.30;;
61531;SDS011;47397;48.194;11.632;2023-08-24T01:33:17;12.13;;;10.93;;
61531;SDS011;47397;48.194;11.632;2023-08-24T01:34:18;12.82;;;11.10;;
61531;SDS011;47397;48.194;11.632;2023-08-24T01:35:18;15.27;;;13.00;;
61531;SDS011;47397;48.194;11.632;2023-08-24T01:36:18;13.45;;;11.32;;
61531;SDS011;47397;48.194;11.632;2023-08-24T01:37:18;13.20;;;11.80;;
61531;SDS011;47397;48.194;11.632;2023-08-24T01:38:19;14.38;;;11.27;;
61531;SDS011;47397;48.194;11.632;2023-08-24T01:39:21;13.15;;;11.43;;
61531;SDS011;47397;48.194;11.632;2023-08-24T01:40:25;13.77;;;11.43;;
61531;SDS011;47397;48.194;11.632;2023-08-24T01:41:30;13.10;;;11.70;;
61531;SDS011;47397;48.194;11.632;2023-08-24T01:42:31;12.40;;;11.18;;
61531;SDS011;47397;48.194;11.632;2023-08-24T01:43:32;12.93;;;11.63;;
61531;SDS011;47397;48.194;11.632;2023-08-24T01:44:33;13.40;;;11.77;;
61531;SDS011;47397;48.194;11.632;2023-08-24T01:45:35;14.55;;;12.63;;
61531;SDS011;47397;48.194;11.632;2023-08-24T01:46:35;13.30;;;11.93;;
61531;SDS011;47397;48.194;11.632;2023-08-24T01:47:36;12.68;;;11.50;;
61531;SDS011;47397;48.194;11.632;2023-08-24T01:48:37;13.68;;;11.73;;
61531;SDS011;47397;48.194;11.632;2023-08-24T01:49:38;13.35;;;11.93;;
61531;SDS011;47397;48.194;11.632;2023-08-24T01:50:39;13.18;;;11.88;;
61531;SDS011;47397;48.194;11.632;2023-08-24T01:51:40;14.93;;;12.48;;
61531;SDS011;47397;48.194;11.632;2023-08-24T01:52:41;13.38;;;11.98;;
61531;SDS011;47397;48.194;11.632;2023-08-24T01:53:41;17.83;;;12.27;;
61531;SDS011;47397;48.194;11.632;2023-08-24T01:54:42;13.68;;;12.07;;
61531;SDS011;47397;48.194;11.632;2023-08-24T01:55:44;14.07;;;12.70;;
61531;SDS011;47397;48.194;11.632;2023-08-24T01:56:46;14.88;;;12.32;;
61531;SDS011;47397;48.194;11.632;2023-08-24T01:57:47;14.20;;;12.63;;
61531;SDS011;47397;48.194;11.632;2023-08-24T01:58:48;13.68;;;11.85;;
61531;SDS011;47397;48.194;11.632;2023-08-24T01:59:48;13.25;;;12.05;;
61531;SDS011;47397;48.194;11.632;2023-08-24T02:00:48;14.35;;;12.77;;
61531;SDS011;47397;48.194;11.632;2023-08-24T02:01:48;13.43;;;12.05;;
61531;SDS011;47397;48.194;11.632;2023-08-24T02:02:49;13.95;;;12.52;;
61531;SDS011;47397;48.194;11.632;2023-08-24T02:03:49;13.95;;;12.45;;
61531;SDS011;47397;48.194;11.632;2023-08-24T02:04:49;13.60;;;12.20;;
61531;SDS011;47397;48.194;11.632;2023-08-24T02:05:49;13.85;;;12.55;;
61531;SDS011;47397;48.194;11.632;2023-08-24T02:06:49;13.57;;;12.27;;
61531;SDS011;47397;48.194;11.632;2023-08-24T02:07:50;14.57;;;13.07;;
61531;SDS011;47397;48.194;11.632;2023-08-24T02:08:50;15.00;;;12.88;;
61531;SDS011;47397;48.194;11.632;2023-08-24T02:09:50;15.68;;;13.15;;
61531;SDS011;47397;48.194;11.632;2023-08-24T02:10:50;15.38;;;13.88;;
61531;SDS011;47397;48.194;11.632;2023-08-24T02:11:52;15.85;;;13.85;;
61531;SDS011;47397;48.194;11.632;2023-08-24T02:12:52;14.43;;;12.93;;
61531;SDS011;47397;48.194;11.632;2023-08-24T02:13:53;14.10;;;12.70;;
61531;SDS011;47397;48.194;11.632;2023-08-24T02:14:53;14.60;;;13.10;;
61531;SDS011;47397;48.194;11.632;2023-08-24T02:16:00;14.60;;;13.05;;
61531;SDS011;47397;48.194;11.632;2023-08-24T02:17:00;14.38;;;12.95;;
61531;SDS011;47397;48.194;11.632;2023-08-24T02:18:00;15.15;;;13.35;;
61531;SDS011;47397;48.194;11.632;2023-08-24T02:19:01;14.80;;;12.68;;
61531;SDS011;47397;48.194;11.632;2023-08-24T02:20:01;14.35;;;13.00;;
61531;SDS011;47397;48.194;11.632;2023-08-24T02:21:06;13.90;;;12.70;;
61531;SDS011;47397;48.194;11.632;2023-08-24T02:22:06;14.65;;;13.18;;
61531;SDS011;47397;48.194;11.632;2023-08-24T02:23:07;13.93;;;12.50;;
61531;SDS011;47397;48.194;11.632;2023-08-24T02:24:07;14.77;;;12.98;;
61531;SDS011;47397;48.194;11.632;2023-08-24T02:25:09;13.77;;;12.20;;
61531;SDS011;47397;48.194;11.632;2023-08-24T02:26:09;14.35;;;12.88;;
61531;SDS011;47397;48.194;11.632;2023-08-24T02:27:11;14.52;;;12.98;;
61531;SDS011;47397;48.194;11.632;2023-08-24T02:28:11;16.33;;;12.90;;
61531;SDS011;47397;48.194;11.632;2023-08-24T02:29:11;15.45;;;11.80;;
61531;SDS011;47397;48.194;11.632;2023-08-24T02:30:12;13.77;;;12.02;;
61531;SDS011;47397;48.194;11.632;2023-08-24T02:31:12;13.20;;;11.80;;
61531;SDS011;47397;48.194;11.632;2023-08-24T02:32:12;16.42;;;12.55;;
61531;SDS011;47397;48.194;11.632;2023-08-24T02:33:13;13.10;;;11.80;;
61531;SDS011;47397;48.194;11.632;2023-08-24T02:34:13;14.15;;;12.68;;
61531;SDS011;47397;48.194;11.632;2023-08-24T02:35:13;13.32;;;11.55;;
61531;SDS011;47397;48.194;11.632;2023-08-24T02:36:13;14.23;;;12.30;;
61531;SDS011;47397;48.194;11.632;2023-08-24T02:37:14;18.08;;;13.30;;
61531;SDS011;47397;48.194;11.632;2023-08-24T02:38:14;13.88;;;12.45;;
61531;SDS011;47397;48.194;11.632;2023-08-24T02:39:14;14.13;;;12.73;;
61531;SDS011;47397;48.194;11.632;2023-08-24T02:40:14;14.07;;;12.68;;
61531;SDS011;47397;48.194;11.632;2023-08-24T02:41:14;15.38;;;12.50;;
61531;SDS011;47397;48.194;11.632;2023-08-24T02:42:16;13.70;;;12.40;;
61531;SDS011;47397;48.194;11.632;2023-08-24T02:43:16;16.48;;;12.23;;
61531;SDS011;47397;48.194;11.632;2023-08-24T02:44:16;13.75;;;12.25;;
61531;SDS011;47397;48.194;11.632;2023-08-24T02:45:17;13.85;;;12.40;;
61531;SDS011;47397;48.194;11.632;2023-08-24T02:46:17;12.73;;;11.27;;
61531;SDS011;47397;48.194;11.632;2023-08-24T02:47:17;12.75;;;11.55;;
61531;SDS011;47397;48.194;11.632;2023-08-24T02:48:17;12.73;;;11.43;;
61531;SDS011;47397;48.194;11.632;2023-08-24T02:49:18;14.70;;;11.52;;
61531;SDS011;47397;48.194;11.632;2023-08-24T02:50:18;13.57;;;11.32;;
61531;SDS011;47397;48.194;11.632;2023-08-24T02:51:20;12.45;;;11.20;;
61531;SDS011;47397;48.194;11.632;2023-08-24T02:52:21;14.07;;;11.65;;
61531;SDS011;47397;48.194;11.632;2023-08-24T02:53:21;13.05;;;11.73;;
61531;SDS011;47397;48.194;11.632;2023-08-24T02:54:21;13.32;;;11.88;;
61531;SDS011;47397;48.194;11.632;2023-08-24T02:55:21;14.45;;;13.00;;
61531;SDS011;47397;48.194;11.632;2023-08-24T02:56:22;13.30;;;12.00;;
61531;SDS011;47397;48.194;11.632;2023-08-24T02:57:23;13.43;;;12.02;;
61531;SDS011;47397;48.194;11.632;2023-08-24T02:58:24;13.57;;;11.73;;
61531;SDS011;47397;48.194;11.632;2023-08-24T02:59:24;13.50;;;12.10;;
61531;SDS011;47397;48.194;11.632;2023-08-24T03:00:24;14.25;;;11.88;;
61531;SDS011;47397;48.194;11.632;2023-08-24T03:01:25;13.80;;;12.32;;
61531;SDS011;47397;48.194;11.632;2023-08-24T03:02:25;13.80;;;11.93;;
61531;SDS011;47397;48.194;11.632;2023-08-24T03:03:25;13.75;;;12.32;;
61531;SDS011;47397;48.194;11.632;2023-08-24T03:04:25;12.90;;;11.63;;
61531;SDS011;47397;48.194;11.632;2023-08-24T03:05:25;13.35;;;11.93;;
61531;SDS011;47397;48.194;11.632;2023-08-24T03:06:26;13.32;;;12.05;;
61531;SDS011;47397;48.194;11.632;2023-08-24T03:07:26;13.60;;;11.98;;
61531;SDS011;47397;48.194;11.632;2023-08-24T03:08:26;13.07;;;11.40;;
61531;SDS011;47397;48.194;11.632;2023-08-24T03:09:27;13.55;;;11.98;;
61531;SDS011;47397;48.194;11.632;2023-08-24T03:10:27;13.95;;;11.80;;
61531;SDS011;47397;48.194;11.632;2023-08-24T03:11:27;13.25;;;11.85;;
61531;SDS011;47397;48.194;11.632;2023-08-24T03:12:29;12.55;;;11.25;;
61531;SDS011;47397;48.194;11.632;2023-08-24T03:13:29;12.95;;;11.20;;
61531;SDS011;47397;48.194;11.632;2023-08-24T03:14:30;14.82;;;12.18;;
61531;SDS011;47397;48.194;11.632;2023-08-24T03:15:30;15.35;;;12.02;;
61531;SDS011;47397;48.194;11.632;2023-08-24T03:16:30;13.38;;;11.82;;
61531;SDS011;47397;48.194;11.632;2023-08-24T03:17:30;14.25;;;12.00;;
61531;SDS011;47397;48.194;11.632;2023-08-24T03:18:30;14.98;;;11.50;;
61531;SDS011;47397;48.194;11.632;2023-08-24T03:19:31;12.38;;;11.15;;
61531;SDS011;47397;48.194;11.632;2023-08-24T03:20:31;12.50;;;11.25;;
61531;SDS011;47397;48.194;11.632;2023-08-24T03:21:31;13.15;;;11.43;;
61531;SDS011;47397;48.194;11.632;2023-08-24T03:22:31;12.98;;;11.45;;
61531;SDS011;47397;48.194;11.632;2023-08-24T03:23:32;13.48;;;12.07;;
61531;SDS011;47397;48.194;11.632;2023-08-24T03:24:32;12.52;;;11.23;;
61531;SDS011;47397;48.194;11.632;2023-08-24T03:25:35;13.00;;;11.38;;
61531;SDS011;47397;48.194;11.632;2023-08-24T03:26:35;12.52;;;11.30;;
61531;SDS011;47397;48.194;11.632;2023-08-24T03:27:37;13.93;;;11.45;;
61531;SDS011;47397;48.194;11.632;2023-08-24T03:28:38;13.45;;;12.10;;
61531;SDS011;47397;48.194;11.632;2023-08-24T03:29:38;13.43;;;11.60;;
61531;SDS011;47397;48.194;11.632;2023-08-24T03:30:39;12.85;;;11.52;;
61531;SDS011;47397;48.194;11.632;2023-08-24T03:31:39;12.50;;;11.18;;
61531;SDS011;47397;48.194;11.632;2023-08-24T03:32:39;13.00;;;11.60;;
61531;SDS011;47397;48.194;11.632;2023-08-24T03:33:39;12.43;;;11.02;;
61531;SDS011;47397;48.194;11.632;2023-08-24T03:34:40;12.77;;;11.57;;
61531;SDS011;47397;48.194;11.632;2023-08-24T03:35:40;14.93;;;11.70;;
61531;SDS011;47397;48.194;11.632;2023-08-24T03:36:40;13.40;;;11.52;;
61531;SDS011;47397;48.194;11.632;2023-08-24T03:37:40;13.05;;;11.63;;
61531;SDS011;47397;48.194;11.632;2023-08-24T03:38:41;13.63;;;12.18;;
61531;SDS011;47397;48.194;11.632;2023-08-24T03:39:41;12.30;;;11.02;;
61531;SDS011;47397;48.194;11.632;2023-08-24T03:40:41;13.43;;;11.38;;
61531;SDS011;47397;48.194;11.632;2023-08-24T03:41:41;13.43;;;11.48;;
61531;SDS011;47397;48.194;11.632;2023-08-24T03:42:43;14.60;;;12.02;;
61531;SDS011;47397;48.194;11.632;2023-08-24T03:43:43;13.00;;;11.70;;
61531;SDS011;47397;48.194;11.632;2023-08-24T03:44:43;12.35;;;11.15;;
61531;SDS011;47397;48.194;11.632;2023-08-24T03:45:43;13.10;;;11.05;;
61531;SDS011;47397;48.194;11.632;2023-08-24T03:46:43;13.90;;;11.43;;
61531;SDS011;47397;48.194;11.632;2023-08-24T03:48:59;13.32;;;11.10;;
61531;SDS011;47397;48.194;11.632;2023-08-24T03:49:59;11.95;;;10.73;;
61531;SDS011;47397;48.194;11.632;2023-08-24T03:51:00;12.07;;;10.80;;
61531;SDS011;47397;48.194;11.632;2023-08-24T03:52:00;10.82;;;9.73;;
61531;SDS011;47397;48.194;11.632;2023-08-24T03:53:00;11.77;;;10.10;;
61531;SDS011;47397;48.194;11.632;2023-08-24T03:54:00;12.70;;;10.35;;
61531;SDS011;47397;48.194;11.632;2023-08-24T03:55:00;11.85;;;10.38;;
61531;SDS011;47397;48.194;11.632;2023-08-24T03:56:01;12.32;;;10.55;;
61531;SDS011;47397;48.194;11.632;2023-08-24T03:57:01;13.77;;;10.45;;
61531;SDS011;47397;48.194;11.632;2023-08-24T03:58:03;13.45;;;10.68;;
61531;SDS011;47397;48.194;11.632;2023-08-24T03:59:03;11.95;;;10.73;;
61531;SDS011;47397;48.194;11.632;2023-08-24T04:00:03;12.40;;;10.43;;
61531;SDS011;47397;48.194;11.632;2023-08-24T04:01:04;11.52;;;10.43;;
61531;SDS011;47397;48.194;11.632;2023-08-24T04:02:04;13.15;;;10.90;;
61531;SDS011;47397;48.194;11.632;2023-08-24T04:03:04;13.88;;;10.68;;
61531;SDS011;47397;48.194;11.632;2023-08-24T04:04:04;13.75;;;10.30;;
61531;SDS011;47397;48.194;11.632;2023-08-24T04:05:05;13.38;;;10.65;;
61531;SDS011;47397;48.194;11.632;2023-08-24T04:06:05;12.13;;;10.43;;
61531;SDS011;47397;48.194;11.632;2023-08-24T04:07:05;13.35;;;11.27;;
61531;SDS011;47397;48.194;11.632;2023-08-24T04:08:05;12.05;;;10.85;;
61531;SDS011;47397;48.194;11.632;2023-08-24T04:09:05;12.77;;;10.13;;
61531;SDS011;47397;48.194;11.632;2023-08-24T04:10:06;11.27;;;10.07;;
61531;SDS011;47397;48.194;11.632;2023-08-24T04:11:07;12.40;;;11.07;;
61531;SDS011;47397;48.194;11.632;2023-08-24T04:12:07;13.05;;;11.13;;
61531;SDS011;47397;48.194;11.632;2023-08-24T04:13:09;12.32;;;10.80;;
61531;SDS011;47397;48.194;11.632;2023-08-24T04:14:09;12.73;;;10.73;;
61531;SDS011;47397;48.194;11.632;2023-08-24T04:15:09;12.63;;;11.30;;
61531;SDS011;47397;48.194;11.632;2023-08-24T04:16:09;13.27;;;10.35;;
61531;SDS011;47397;48.194;11.632;2023-08-24T04:17:10;13.25;;;11.13;;
61531;SDS011;47397;48.194;11.632;2023-08-24T04:18:10;11.85;;;10.65;;
61531;SDS011;47397;48.194;11.632;2023-08-24T04:19:10;12.13;;;10.90;;
61531;SDS011;47397;48.194;11.632;2023-08-24T04:20:11;11.95;;;10.85;;
61531;SDS011;47397;48.194;11.632;2023-08-24T04:21:11;13.23;;;11.65;;
61531;SDS011;47397;48.194;11.632;2023-08-24T04:22:11;12.52;;;11.23;;
61531;SDS011;47397;48.194;11.632;2023-08-24T04:23:12;11.80;;;10.55;;
61531;SDS011;47397;48.194;11.632;2023-08-24T04:24:13;11.70;;;10.50;;
61531;SDS011;47397;48.194;11.632;2023-08-24T04:25:13;12.15;;;10.85;;
61531;SDS011;47397;48.194;11.632;2023-08-24T04:26:13;13.18;;;10.77;;
61531;SDS011;47397;48.194;11.632;2023-08-24T04:27:14;11.63;;;10.52;;
61531;SDS011;47397;48.194;11.632;2023-08-24T04:28:15;11.52;;;10.25;;
61531;SDS011;47397;48.194;11.632;2023-08-24T04:29:15;11.48;;;10.30;;
61531;SDS011;47397;48.194;11.632;2023-08-24T04:30:16;12.68;;;11.02;;
61531;SDS011;47397;48.194;11.632;2023-08-24T04:31:16;12.32;;;11.02;;
61531;SDS011;47397;48.194;11.632;2023-08-24T04:32:16;14.38;;;11.07;;
61531;SDS011;47397;48.194;11.632;2023-08-24T04:33:16;13.50;;;11.55;;
61531;SDS011;47397;48.194;11.632;2023-08-24T04:34:17;12.45;;;11.07;;
61531;SDS011;47397;48.194;11.632;2023-08-24T04:35:17;12.25;;;11.05;;
61531;SDS011;47397;48.194;11.632;2023-08-24T04:36:17;11.95;;;10.73;;
61531;SDS011;47397;48.194;11.632;2023-08-24T04:37:17;11.80;;;10.63;;
61531;SDS011;47397;48.194;11.632;2023-08-24T04:38:17;12.55;;;11.02;;
61531;SDS011;47397;48.194;11.632;2023-08-24T04:39:18;12.80;;;11.13;;
61531;SDS011;47397;48.194;11.632;2023-08-24T04:40:18;12.25;;;10.60;;
61531;SDS011;47397;48.194;11.632;2023-08-24T04:41:18;11.85;;;10.65;;
61531;SDS011;47397;48.194;11.632;2023-08-24T04:42:18;12.20;;;11.00;;
61531;SDS011;47397;48.194;11.632;2023-08-24T04:43:20;11.38;;;9.77;;
61531;SDS011;47397;48.194;11.632;2023-08-24T04:44:22;12.95;;;11.00;;
61531;SDS011;47397;48.194;11.632;2023-08-24T04:45:22;12.38;;;10.45;;
61531;SDS011;47397;48.194;11.632;2023-08-24T04:46:23;12.23;;;10.75;;
61531;SDS011;47397;48.194;11.632;2023-08-24T04:47:23;12.93;;;10.75;;
61531;SDS011;47397;48.194;11.632;2023-08-24T04:48:23;11.80;;;10.70;;
61531;SDS011;47397;48.194;11.632;2023-08-24T04:49:24;12.00;;;10.77;;
61531;SDS011;47397;48.194;11.632;2023-08-24T04:50:24;11.93;;;10.30;;
61531;SDS011;47397;48.194;11.632;2023-08-24T04:51:24;14.93;;;10.93;;
61531;SDS011;47397;48.194;11.632;2023-08-24T04:52:24;11.73;;;10.15;;
61531;SDS011;47397;48.194;11.632;2023-08-24T04:53:25;12.80;;;11.55;;
61531;SDS011;47397;48.194;11.632;2023-08-24T04:54:25;12.98;;;11.43;;
61531;SDS011;47397;48.194;11.632;2023-08-24T04:55:26;12.05;;;10.85;;
61531;SDS011;47397;48.194;11.632;2023-08-24T04:56:26;12.18;;;10.95;;
61531;SDS011;47397;48.194;11.632;2023-08-24T04:57:26;14.38;;;10.48;;
61531;SDS011;47397;48.194;11.632;2023-08-24T04:58:27;13.35;;;10.68;;
61531;SDS011;47397;48.194;11.632;2023-08-24T04:59:28;13.20;;;11.10;;
61531;SDS011;47397;48.194;11.632;2023-08-24T05:00:28;14.13;;;10.90;;
61531;SDS011;47397;48.194;11.632;2023-08-24T05:01:28;11.98;;;10.30;;
61531;SDS011;47397;48.194;11.632;2023-08-24T05:02:28;15.05;;;11.23;;
61531;SDS011;47397;48.194;11.632;2023-08-24T05:03:28;12.15;;;10.50;;
61531;SDS011;47397;48.194;11.632;2023-08-24T05:04:29;11.85;;;10.63;;
61531;SDS011;47397;48.194;11.632;2023-08-24T05:05:29;11.20;;;10.10;;
61531;SDS011;47397;48.194;11.632;2023-08-24T05:06:29;14.35;;;10.88;;
61531;SDS011;47397;48.194;11.632;2023-08-24T05:07:30;11.38;;;10.00;;
61531;SDS011;47397;48.194;11.632;2023-08-24T05:08:30;11.38;;;10.07;;
61531;SDS011;47397;48.194;11.632;2023-08-24T05:09:30;12.80;;;10.93;;
61531;SDS011;47397;48.194;11.632;2023-08-24T05:10:31;13.20;;;10.07;;
61531;SDS011;47397;48.194;11.632;2023-08-24T05:11:31;11.57;;;10.48;;
61531;SDS011;47397;48.194;11.632;2023-08-24T05:12:31;11.77;;;10.57;;
61531;SDS011;47397;48.194;11.632;2023-08-24T05:13:33;13.40;;;10.57;;
61531;SDS011;47397;48.194;11.632;2023-08-24T05:14:33;12.82;;;10.73;;
61531;SDS011;47397;48.194;11.632;2023-08-24T05:15:33;12.68;;;10.23;;
61531;SDS011;47397;48.194;11.632;2023-08-24T05:16:33;12.93;;;10.93;;
61531;SDS011;47397;48.194;11.632;2023-08-24T05:17:34;13.02;;;11.48;;
61531;SDS011;47397;48.194;11.632;2023-08-24T05:18:34;12.50;;;10.65;;
61531;SDS011;47397;48.194;11.632;2023-08-24T05:19:34;13.90;;;12.13;;
61531;SDS011;47397;48.194;11.632;2023-08-24T05:20:34;12.60;;;11.18;;
61531;SDS011;47397;48.194;11.632;2023-08-24T05:21:34;11.60;;;10.35;;
61531;SDS011;47397;48.194;11.632;2023-08-24T05:22:35;13.02;;;10.88;;
61531;SDS011;47397;48.194;11.632;2023-08-24T05:23:35;11.73;;;10.63;;
61531;SDS011;47397;48.194;11.632;2023-08-24T05:24:35;12.68;;;11.38;;
61531;SDS011;47397;48.194;11.632;2023-08-24T05:25:35;12.48;;;11.18;;
61531;SDS011;47397;48.194;11.632;2023-08-24T05:26:35;11.27;;;10.10;;
61531;SDS011;47397;48.194;11.632;2023-08-24T05:27:36;12.10;;;11.02;;
61531;SDS011;47397;48.194;11.632;2023-08-24T05:28:38;11.95;;;9.98;;
61531;SDS011;47397;48.194;11.632;2023-08-24T05:29:38;13.00;;;10.05;;
61531;SDS011;47397;48.194;11.632;2023-08-24T05:30:38;12.02;;;10.82;;
61531;SDS011;47397;48.194;11.632;2023-08-24T05:31:38;12.60;;;11.30;;
61531;SDS011;47397;48.194;11.632;2023-08-24T05:32:39;12.40;;;10.98;;
61531;SDS011;47397;48.194;11.632;2023-08-24T05:33:39;11.32;;;10.15;;
61531;SDS011;47397;48.194;11.632;2023-08-24T05:34:39;11.90;;;10.68;;
61531;SDS011;47397;48.194;11.632;2023-08-24T05:35:39;12.02;;;10.52;;
61531;SDS011;47397;48.194;11.632;2023-08-24T05:36:40;11.55;;;10.45;;
61531;SDS011;47397;48.194;11.632;2023-08-24T05:37:40;11.70;;;10.23;;
61531;SDS011;47397;48.194;11.632;2023-08-24T05:38:40;11.52;;;10.43;;
61531;SDS011;47397;48.194;11.632;2023-08-24T05:39:40;12.23;;;11.02;;
61531;SDS011;47397;48.194;11.632;2023-08-24T05:40:41;11.52;;;10.43;;
61531;SDS011;47397;48.194;11.632;2023-08-24T05:41:41;11.85;;;10.63;;
61531;SDS011;47397;48.194;11.632;2023-08-24T05:42:42;11.98;;;10.65;;
61531;SDS011;47397;48.194;11.632;2023-08-24T05:43:43;15.15;;;10.30;;
61531;SDS011;47397;48.194;11.632;2023-08-24T05:44:43;11.35;;;10.15;;
61531;SDS011;47397;48.194;11.632;2023-08-24T05:45:45;12.35;;;11.15;;
61531;SDS011;47397;48.194;11.632;2023-08-24T05:46:45;11.63;;;10.43;;
61531;SDS011;47397;48.194;11.632;2023-08-24T05:47:46;11.55;;;10.35;;
61531;SDS011;47397;48.194;11.632;2023-08-24T05:48:46;10.80;;;9.70;;
61531;SDS011;47397;48.194;11.632;2023-08-24T05:49:46;11.95;;;10.75;;
61531;SDS011;47397;48.194;11.632;2023-08-24T05:50:46;11.20;;;10.07;;